Yanceyville, North Carolina
Current Conditions -  °F | °C
As of 9:53 AM on Saturday 25 Oct 2014 (Local Time) from KDAN Reporting Station
Clear Clear  
Wind Chill: 52°   Ceiling: Unl
Heat Index: 52°   Visibility: 10mi
Dew Point: 44°   Wind: 0mph
Humidity: 74%   Direction: NA
Pressure: 30.05"   Gusts: NA
Location:  36.4°N, 79.34°W
Report Text: KDAN 251353Z AUTO 00000KT 10SM CLR 11/07 A3005 RMK AO2 SLP169 T01110067
Loading
Personal Weather Stations






























Interactive Weather Map
Tropical Storm Tracking
New forecast layout! Learn more

10-Day Weather Forecast

Advertisements
Track Severe Weather on mobile